createdAt,value
2022-10-15T00:00:27.817Z,13.21
2022-10-15T00:01:27.883Z,13.26
2022-10-15T00:02:27.851Z,13.27
2022-10-15T00:03:27.869Z,13.26
2022-10-15T00:04:27.885Z,13.27
2022-10-15T00:05:27.902Z,13.24
2022-10-15T00:06:27.920Z,13.26
2022-10-15T00:07:27.937Z,13.26
2022-10-15T00:08:27.954Z,13.20
2022-10-15T00:09:27.971Z,13.23
2022-10-15T00:10:27.987Z,13.21
2022-10-15T00:11:28.004Z,13.28
2022-10-15T00:12:28.022Z,13.28
2022-10-15T00:13:28.038Z,13.24
2022-10-15T00:14:28.058Z,13.28
2022-10-15T00:15:28.074Z,13.17
2022-10-15T00:16:28.093Z,13.21
2022-10-15T00:17:28.107Z,13.16
2022-10-15T00:18:28.123Z,13.16
2022-10-15T00:19:28.143Z,13.20
2022-10-15T00:20:28.162Z,13.20
2022-10-15T00:21:28.172Z,13.23
2022-10-15T00:22:28.193Z,13.19
2022-10-15T00:23:28.208Z,13.09
2022-10-15T00:24:28.228Z,13.12
2022-10-15T00:25:28.242Z,13.09
2022-10-15T00:26:28.258Z,13.09
2022-10-15T00:27:28.277Z,13.16
2022-10-15T00:28:31.880Z,13.19
2022-10-15T00:29:28.310Z,13.12
2022-10-15T00:30:28.326Z,13.12
2022-10-15T00:31:28.350Z,13.16
2022-10-15T00:32:28.361Z,13.16
2022-10-15T00:33:28.377Z,13.08
2022-10-15T00:34:28.393Z,13.13
2022-10-15T00:35:28.412Z,13.13
2022-10-15T00:36:28.428Z,13.11
2022-10-15T00:37:28.446Z,12.99
2022-10-15T00:38:28.463Z,13.02
2022-10-15T00:39:28.483Z,13.13
2022-10-15T00:40:28.495Z,13.08
2022-10-15T00:41:28.513Z,13.02
2022-10-15T00:42:28.528Z,13.03
2022-10-15T00:43:28.547Z,13.03
2022-10-15T00:44:28.562Z,12.95
2022-10-15T00:45:28.579Z,13.02
2022-10-15T00:46:28.603Z,13.02
2022-10-15T00:47:28.612Z,13.01
2022-10-15T00:48:28.632Z,12.94
2022-10-15T00:49:28.647Z,13.01
2022-10-15T00:50:28.662Z,12.91
2022-10-15T00:51:28.681Z,12.98
2022-10-15T00:52:28.697Z,12.99
2022-10-15T00:53:28.714Z,13.01
2022-10-15T00:54:28.732Z,12.94
2022-10-15T00:55:28.748Z,12.98
2022-10-15T00:56:28.763Z,12.94
2022-10-15T00:57:28.781Z,12.94
2022-10-15T00:58:28.797Z,12.99
2022-10-15T00:59:28.816Z,12.95
2022-10-15T01:00:28.836Z,13.01
2022-10-15T01:01:28.890Z,12.95
2022-10-15T01:02:28.867Z,12.94
2022-10-15T01:03:28.885Z,12.95
2022-10-15T01:04:28.899Z,13.01
2022-10-15T01:05:28.918Z,13.01
2022-10-15T01:06:28.936Z,12.95
2022-10-15T01:07:28.950Z,12.98
2022-10-15T01:08:28.967Z,12.98
2022-10-15T01:09:28.981Z,12.98
2022-10-15T01:10:29.001Z,13.01
2022-10-15T01:11:29.017Z,13.01
2022-10-15T01:12:29.035Z,13.01
2022-10-15T01:13:29.047Z,13.01
2022-10-15T01:14:29.067Z,12.99
2022-10-15T01:15:29.086Z,12.98
2022-10-15T01:16:29.101Z,12.99
2022-10-15T01:17:29.118Z,13.05
2022-10-15T01:18:29.133Z,13.02
2022-10-15T01:19:29.150Z,13.05
2022-10-15T01:20:29.172Z,13.02
2022-10-15T01:21:29.183Z,13.02
2022-10-15T01:22:29.201Z,13.02
2022-10-15T01:23:29.219Z,13.05
2022-10-15T01:24:29.235Z,13.02
2022-10-15T01:25:29.256Z,13.05
2022-10-15T01:26:29.269Z,13.02
2022-10-15T01:27:29.284Z,13.02
2022-10-15T01:28:29.354Z,13.03
2022-10-15T01:29:29.318Z,13.16
2022-10-15T01:30:29.336Z,13.13
2022-10-15T01:31:29.353Z,13.11
2022-10-15T01:32:29.370Z,13.11
2022-10-15T01:33:29.388Z,13.06
2022-10-15T01:34:29.413Z,13.02
2022-10-15T01:35:29.420Z,13.08
2022-10-15T01:36:29.437Z,13.01
2022-10-15T01:37:29.461Z,13.09
2022-10-15T01:38:29.493Z,13.05
2022-10-15T01:39:29.488Z,12.99
2022-10-15T01:40:29.505Z,13.11
2022-10-15T01:41:29.521Z,12.95
2022-10-15T01:42:29.536Z,12.95
2022-10-15T01:43:29.556Z,13.09
2022-10-15T01:44:29.573Z,13.02
2022-10-15T01:45:29.588Z,12.99
2022-10-15T01:46:29.606Z,12.95
2022-10-15T01:47:29.622Z,13.03
2022-10-15T01:48:29.639Z,13.03
2022-10-15T01:49:29.655Z,13.09
2022-10-15T01:50:29.672Z,13.13
2022-10-15T01:51:29.689Z,13.16
2022-10-15T01:53:29.723Z,13.08
2022-10-15T01:54:29.738Z,13.05
2022-10-15T01:55:29.758Z,13.03
2022-10-15T01:56:29.774Z,13.12
2022-10-15T01:57:29.791Z,13.08
2022-10-15T01:58:29.808Z,13.06
2022-10-15T01:59:29.828Z,13.19
2022-10-15T02:00:29.841Z,13.16
2022-10-15T02:01:29.923Z,13.20
2022-10-15T02:02:29.875Z,13.16
2022-10-15T02:03:29.892Z,13.19
2022-10-15T02:04:29.910Z,13.06
2022-10-15T02:05:29.930Z,13.17
2022-10-15T02:06:29.947Z,13.21
2022-10-15T02:07:29.964Z,13.13
2022-10-15T02:08:29.981Z,13.11
2022-10-15T02:09:29.996Z,13.20
2022-10-15T02:10:30.013Z,13.11
2022-10-15T02:11:30.031Z,13.11
2022-10-15T02:12:30.045Z,13.16
2022-10-15T02:13:30.062Z,13.16
2022-10-15T02:14:30.080Z,13.16
2022-10-15T02:15:30.096Z,13.17
2022-10-15T02:16:30.118Z,13.11
2022-10-15T02:17:30.130Z,13.19
2022-10-15T02:18:30.146Z,13.19
2022-10-15T02:19:30.164Z,13.16
2022-10-15T02:20:30.183Z,13.11
2022-10-15T02:21:30.198Z,13.09
2022-10-15T02:22:30.214Z,13.17
2022-10-15T02:23:30.230Z,13.19
2022-10-15T02:24:30.251Z,13.08
2022-10-15T02:25:30.266Z,13.09
2022-10-15T02:26:30.282Z,13.13
2022-10-15T02:27:30.303Z,13.12
2022-10-15T02:28:30.375Z,13.17
2022-10-15T02:29:30.333Z,13.17
2022-10-15T02:30:30.351Z,13.21
2022-10-15T02:31:30.368Z,13.19
2022-10-15T02:32:30.385Z,13.06
2022-10-15T02:33:30.401Z,13.09
2022-10-15T02:34:30.418Z,13.16
2022-10-15T02:35:30.438Z,13.13
2022-10-15T02:36:30.454Z,13.09
2022-10-15T02:37:30.472Z,13.11
2022-10-15T02:38:30.490Z,13.11
2022-10-15T02:39:30.505Z,13.17
2022-10-15T02:40:30.522Z,13.12
2022-10-15T02:41:30.543Z,13.13
2022-10-15T02:42:30.555Z,13.20
2022-10-15T02:43:30.573Z,13.11
2022-10-15T02:44:30.590Z,13.13
2022-10-15T02:45:30.608Z,13.21
2022-10-15T02:46:30.623Z,13.19
2022-10-15T02:47:30.643Z,13.12
2022-10-15T02:48:30.658Z,13.09
2022-10-15T02:49:30.676Z,13.12
2022-10-15T02:50:30.693Z,13.12
2022-10-15T02:51:30.708Z,13.12
2022-10-15T02:52:30.728Z,13.09
2022-10-15T02:53:30.745Z,13.13
2022-10-15T02:54:30.760Z,13.08
2022-10-15T02:55:30.779Z,13.16
2022-10-15T02:57:30.818Z,13.09
2022-10-15T02:58:30.829Z,13.20
2022-10-15T02:59:30.846Z,13.23
2022-10-15T03:00:30.863Z,13.11
2022-10-15T03:01:30.921Z,13.13
2022-10-15T03:02:30.897Z,13.17
2022-10-15T03:03:30.915Z,13.09
2022-10-15T03:04:30.935Z,13.19
2022-10-15T03:05:30.974Z,13.17
2022-10-15T03:06:30.967Z,13.13
2022-10-15T03:07:30.983Z,13.11
2022-10-15T03:08:30.998Z,13.12
2022-10-15T03:09:31.016Z,13.19
2022-10-15T03:10:31.035Z,13.16
2022-10-15T03:11:31.051Z,13.13
2022-10-15T03:12:31.068Z,13.12
2022-10-15T03:13:31.089Z,13.13
2022-10-15T03:14:31.105Z,13.13
2022-10-15T03:15:31.120Z,13.09
2022-10-15T03:16:31.137Z,12.93
2022-10-15T03:17:31.153Z,12.95
2022-10-15T03:18:31.171Z,13.03
2022-10-15T03:19:31.187Z,13.12
2022-10-15T03:20:31.204Z,13.01
2022-10-15T03:21:31.262Z,12.99
2022-10-15T03:22:31.238Z,12.99
2022-10-15T03:23:31.260Z,12.95
2022-10-15T03:24:31.273Z,13.08
2022-10-15T03:25:31.291Z,13.02
2022-10-15T03:26:31.316Z,13.02
2022-10-15T03:27:31.355Z,13.11
2022-10-15T03:28:31.394Z,13.02
2022-10-15T03:29:31.359Z,13.01
2022-10-15T03:30:31.377Z,13.08
2022-10-15T03:31:31.403Z,13.05
2022-10-15T03:32:33.055Z,12.99
2022-10-15T03:33:31.429Z,13.01
2022-10-15T03:34:31.443Z,12.98
2022-10-15T03:35:31.461Z,13.02
2022-10-15T03:36:31.480Z,12.99
2022-10-15T03:37:31.494Z,12.94
2022-10-15T03:38:31.511Z,12.91
2022-10-15T03:39:31.529Z,12.94
2022-10-15T03:40:31.547Z,12.93
2022-10-15T03:41:31.580Z,12.91
2022-10-15T03:42:31.881Z,12.93
2022-10-15T03:43:31.598Z,12.91
2022-10-15T03:44:31.614Z,12.87
2022-10-15T03:45:31.630Z,12.95
2022-10-15T03:46:31.647Z,12.84
2022-10-15T03:47:31.665Z,12.88
2022-10-15T03:48:31.680Z,12.86
2022-10-15T03:49:31.698Z,12.84
2022-10-15T03:50:31.742Z,12.83
2022-10-15T03:51:31.876Z,12.80
2022-10-15T03:52:31.748Z,12.73
2022-10-15T03:53:31.769Z,12.80
2022-10-15T03:54:31.785Z,12.81
2022-10-15T03:55:31.797Z,12.86
2022-10-15T03:56:31.819Z,12.76
2022-10-15T03:57:31.835Z,12.76
2022-10-15T03:58:31.848Z,12.83
2022-10-15T03:59:31.902Z,12.72
2022-10-15T04:00:31.884Z,12.75
2022-10-15T04:01:31.957Z,12.75
2022-10-15T04:02:31.916Z,12.78
2022-10-15T04:03:31.936Z,12.78
2022-10-15T04:04:31.954Z,12.72
2022-10-15T04:05:31.967Z,12.66
2022-10-15T04:06:31.984Z,12.65
2022-10-15T04:07:32.004Z,12.66
2022-10-15T04:08:32.019Z,12.66
2022-10-15T04:09:32.037Z,12.65
2022-10-15T04:10:32.054Z,12.69
2022-10-15T04:11:32.071Z,12.75
2022-10-15T04:12:32.083Z,12.65
2022-10-15T04:13:32.103Z,12.65
2022-10-15T04:14:32.119Z,12.65
2022-10-15T04:15:32.136Z,12.70
2022-10-15T04:16:32.157Z,12.65
2022-10-15T04:17:32.167Z,12.65
2022-10-15T04:18:32.184Z,12.66
2022-10-15T04:19:32.201Z,12.58
2022-10-15T04:20:32.218Z,12.65
2022-10-15T04:21:32.235Z,12.66
2022-10-15T04:22:32.254Z,12.54
2022-10-15T04:23:32.268Z,12.63
2022-10-15T04:24:32.285Z,12.53
2022-10-15T04:25:32.301Z,12.54
2022-10-15T04:26:32.320Z,12.53
2022-10-15T04:27:32.339Z,12.51
2022-10-15T04:28:32.397Z,12.54
2022-10-15T04:29:32.368Z,12.45
2022-10-15T04:30:32.385Z,12.39
2022-10-15T04:31:32.403Z,12.43
2022-10-15T04:32:32.417Z,12.50
2022-10-15T04:33:32.434Z,12.51
2022-10-15T04:34:32.451Z,12.51
2022-10-15T04:35:32.470Z,12.53
2022-10-15T04:36:32.484Z,12.45
2022-10-15T04:37:32.501Z,12.57
2022-10-15T04:38:32.519Z,12.53
2022-10-15T04:39:32.534Z,12.54
2022-10-15T04:40:32.550Z,12.55
2022-10-15T04:41:32.567Z,12.55
2022-10-15T04:42:32.585Z,12.62
2022-10-15T04:43:32.602Z,12.53
2022-10-15T04:44:32.618Z,12.66
2022-10-15T04:45:32.636Z,12.57
2022-10-15T04:46:32.650Z,12.55
2022-10-15T04:47:32.669Z,12.63
2022-10-15T04:48:32.684Z,12.66
2022-10-15T04:49:32.701Z,12.66
2022-10-15T04:50:32.716Z,12.65
2022-10-15T04:51:32.734Z,12.68
2022-10-15T04:52:32.751Z,12.73
2022-10-15T04:53:32.768Z,12.66
2022-10-15T04:54:32.786Z,12.69
2022-10-15T04:55:32.800Z,12.73
2022-10-15T04:56:32.820Z,12.70
2022-10-15T04:57:32.834Z,12.73
2022-10-15T04:58:32.854Z,12.73
2022-10-15T04:59:32.868Z,12.78
2022-10-15T05:00:32.886Z,12.69
2022-10-15T05:01:32.904Z,12.83
2022-10-15T05:02:33.086Z,12.80
2022-10-15T05:04:32.953Z,12.86
2022-10-15T05:05:32.971Z,12.70
2022-10-15T05:06:32.987Z,12.75
2022-10-15T05:07:33.005Z,12.68
2022-10-15T05:08:33.021Z,12.80
2022-10-15T05:09:36.695Z,12.80
2022-10-15T05:10:33.055Z,12.78
2022-10-15T05:11:33.071Z,12.76
2022-10-15T05:12:33.130Z,12.81
2022-10-15T05:13:33.105Z,12.78
2022-10-15T05:14:33.119Z,12.76
2022-10-15T05:15:33.138Z,12.81
2022-10-15T05:16:33.157Z,12.76
2022-10-15T05:17:33.174Z,12.86
2022-10-15T05:18:33.189Z,12.80
2022-10-15T05:19:33.206Z,12.84
2022-10-15T05:20:33.224Z,12.80
2022-10-15T05:21:33.262Z,12.80
2022-10-15T05:22:33.269Z,12.81
2022-10-15T05:23:33.277Z,12.83
2022-10-15T05:24:33.291Z,12.83
2022-10-15T05:25:33.323Z,12.81
2022-10-15T05:26:33.326Z,12.86
2022-10-15T05:27:33.343Z,12.86
2022-10-15T05:28:33.386Z,12.83
2022-10-15T05:29:33.375Z,12.83
2022-10-15T05:30:33.392Z,12.80
2022-10-15T05:31:33.410Z,12.80
2022-10-15T05:32:33.429Z,12.72
2022-10-15T05:33:33.448Z,12.76
2022-10-15T05:34:33.460Z,12.69
2022-10-15T05:35:33.480Z,12.81
2022-10-15T05:36:33.494Z,12.70
2022-10-15T05:37:33.511Z,12.86
2022-10-15T05:38:33.527Z,12.70
2022-10-15T05:39:33.543Z,12.78
2022-10-15T05:40:33.560Z,12.78
2022-10-15T05:41:33.577Z,12.73
2022-10-15T05:42:33.598Z,12.72
2022-10-15T05:43:36.129Z,12.70
2022-10-15T05:44:33.627Z,12.72
2022-10-15T05:45:33.644Z,12.76
2022-10-15T05:46:33.659Z,12.65
2022-10-15T05:47:33.681Z,12.66
2022-10-15T05:48:33.695Z,12.69
2022-10-15T05:49:33.715Z,12.66
2022-10-15T05:50:33.728Z,12.73
2022-10-15T05:51:33.749Z,12.66
2022-10-15T05:52:33.763Z,12.62
2022-10-15T05:53:33.780Z,12.63
2022-10-15T05:54:33.796Z,12.62
2022-10-15T05:55:33.813Z,12.69
2022-10-15T05:56:33.832Z,12.58
2022-10-15T05:57:33.845Z,12.55
2022-10-15T05:58:36.535Z,12.51
2022-10-15T05:59:33.882Z,12.55
2022-10-15T06:00:33.895Z,12.53
2022-10-15T06:01:33.969Z,12.55
2022-10-15T06:02:34.106Z,12.39
2022-10-15T06:03:33.947Z,12.51
2022-10-15T06:04:35.707Z,12.40
2022-10-15T06:05:33.978Z,12.47
2022-10-15T06:06:33.995Z,12.39
2022-10-15T06:07:34.012Z,12.45
2022-10-15T06:08:34.030Z,12.36
2022-10-15T06:09:34.043Z,12.44
2022-10-15T06:10:34.063Z,12.39
2022-10-15T06:11:34.080Z,12.44
2022-10-15T06:12:34.093Z,12.44
2022-10-15T06:13:34.114Z,12.47
2022-10-15T06:14:34.127Z,12.40
2022-10-15T06:15:34.145Z,12.44
2022-10-15T06:16:34.163Z,12.37
2022-10-15T06:17:34.176Z,12.32
2022-10-15T06:18:34.195Z,12.39
2022-10-15T06:19:34.214Z,12.37
2022-10-15T06:20:34.229Z,12.39
2022-10-15T06:21:34.244Z,12.36
2022-10-15T06:22:34.294Z,12.44
2022-10-15T06:23:34.277Z,12.40
2022-10-15T06:24:34.294Z,12.45
2022-10-15T06:25:34.309Z,12.43
2022-10-15T06:26:34.326Z,12.37
2022-10-15T06:27:34.343Z,12.53
2022-10-15T06:28:34.402Z,12.53
2022-10-15T06:29:34.375Z,12.54
2022-10-15T06:30:34.392Z,12.54
2022-10-15T06:31:34.409Z,12.61
2022-10-15T06:32:34.429Z,12.61
2022-10-15T06:33:34.444Z,12.66
2022-10-15T06:34:34.461Z,12.73
2022-10-15T06:35:34.478Z,12.78
2022-10-15T06:36:34.497Z,12.81
2022-10-15T06:37:34.510Z,12.93
2022-10-15T06:38:34.528Z,12.81
2022-10-15T06:39:34.544Z,12.78
2022-10-15T06:40:34.562Z,12.83
2022-10-15T06:41:34.582Z,12.87
2022-10-15T06:42:34.597Z,12.86
2022-10-15T06:43:38.302Z,12.75
2022-10-15T06:44:34.630Z,12.76
2022-10-15T06:45:34.646Z,12.78
2022-10-15T06:46:34.665Z,12.72
2022-10-15T06:47:34.681Z,12.69
2022-10-15T06:48:34.698Z,12.78
2022-10-15T06:49:34.715Z,12.81
2022-10-15T06:50:34.741Z,12.81
2022-10-15T06:51:34.750Z,12.83
2022-10-15T06:52:34.767Z,12.75
2022-10-15T06:53:34.782Z,12.78
2022-10-15T06:54:34.802Z,12.78
2022-10-15T06:55:34.816Z,12.86
2022-10-15T06:56:34.834Z,12.75
2022-10-15T06:57:34.849Z,12.76
2022-10-15T06:58:34.867Z,12.73
2022-10-15T06:59:38.480Z,12.76
2022-10-15T07:01:37.221Z,12.76
2022-10-15T07:02:34.935Z,12.81
2022-10-15T07:03:34.954Z,12.80
2022-10-15T07:04:34.970Z,12.83
2022-10-15T07:05:34.989Z,12.86
2022-10-15T07:06:35.006Z,12.95
2022-10-15T07:07:35.024Z,12.94
2022-10-15T07:08:35.048Z,12.99
2022-10-15T07:09:35.059Z,13.01
2022-10-15T07:10:35.101Z,13.06
2022-10-15T07:11:35.089Z,13.19
2022-10-15T07:12:35.109Z,13.16
2022-10-15T07:13:35.130Z,13.21
2022-10-15T07:14:38.751Z,13.26
2022-10-15T07:15:35.160Z,13.28
2022-10-15T07:16:35.187Z,13.30
2022-10-15T07:17:35.193Z,13.40
2022-10-15T07:18:35.214Z,13.46
2022-10-15T07:19:35.235Z,13.54
2022-10-15T07:20:35.253Z,13.54
2022-10-15T07:21:35.269Z,13.73
2022-10-15T07:22:35.283Z,13.70
2022-10-15T07:23:35.306Z,13.82
2022-10-15T07:24:35.317Z,13.80
2022-10-15T07:25:35.337Z,13.82
2022-10-15T07:26:35.367Z,13.87
2022-10-15T07:27:35.373Z,13.83
2022-10-15T07:28:35.450Z,13.93
2022-10-15T07:29:35.407Z,13.95
2022-10-15T07:30:35.427Z,13.91
2022-10-15T07:31:35.502Z,13.95
2022-10-15T07:32:35.462Z,14.00
2022-10-15T07:33:35.482Z,14.03
2022-10-15T07:34:35.499Z,14.03
2022-10-15T07:35:35.519Z,14.01
2022-10-15T07:36:35.533Z,14.07
2022-10-15T07:37:35.554Z,14.03
2022-10-15T07:38:35.573Z,14.11
2022-10-15T07:39:37.881Z,14.18
2022-10-15T07:40:35.609Z,14.19
2022-10-15T07:41:35.628Z,14.23
2022-10-15T07:42:35.644Z,14.18
2022-10-15T07:43:35.663Z,14.23
2022-10-15T07:44:35.681Z,14.23
2022-10-15T07:45:35.700Z,14.23
2022-10-15T07:46:35.719Z,14.28
2022-10-15T07:47:35.735Z,14.37
2022-10-15T07:48:35.756Z,14.37
2022-10-15T07:49:35.773Z,14.34
2022-10-15T07:50:37.246Z,14.30
2022-10-15T07:51:35.815Z,14.41
2022-10-15T07:52:35.831Z,14.49
2022-10-15T07:53:35.845Z,14.41
2022-10-15T07:54:35.868Z,14.45
2022-10-15T07:55:35.888Z,14.44
2022-10-15T07:56:35.905Z,14.45
2022-10-15T07:57:35.923Z,14.44
2022-10-15T07:58:35.942Z,14.53
2022-10-15T07:59:35.959Z,14.53
2022-10-15T08:00:35.980Z,14.55
2022-10-15T08:01:35.996Z,14.53
2022-10-15T08:02:36.015Z,14.63
2022-10-15T08:03:36.034Z,14.68
2022-10-15T08:04:36.053Z,14.62
2022-10-15T08:05:36.072Z,14.63
2022-10-15T08:06:36.087Z,14.74
2022-10-15T08:07:36.109Z,14.82
2022-10-15T08:08:36.137Z,14.74
2022-10-15T08:09:36.287Z,14.87
2022-10-15T08:10:36.168Z,14.92
2022-10-15T08:11:36.184Z,14.92
2022-10-15T08:12:36.204Z,15.02
2022-10-15T08:13:36.220Z,15.05
2022-10-15T08:14:36.240Z,15.08
2022-10-15T08:15:36.260Z,15.11
2022-10-15T08:16:36.301Z,15.17
2022-10-15T08:17:36.298Z,15.30
2022-10-15T08:18:36.317Z,15.32
2022-10-15T08:19:36.338Z,15.37
2022-10-15T08:20:36.356Z,15.44
2022-10-15T08:21:36.374Z,15.54
2022-10-15T08:22:36.399Z,15.48
2022-10-15T08:23:36.414Z,15.57
2022-10-15T08:24:36.434Z,15.66
2022-10-15T08:25:36.455Z,15.73
2022-10-15T08:26:36.474Z,15.67
2022-10-15T08:27:36.494Z,15.75
2022-10-15T08:28:36.557Z,15.81
2022-10-15T08:29:36.534Z,15.78
2022-10-15T08:30:36.556Z,15.75
2022-10-15T08:31:36.575Z,15.83
2022-10-15T08:32:36.590Z,15.88
2022-10-15T08:33:36.611Z,15.90
2022-10-15T08:34:36.630Z,15.90
2022-10-15T08:35:36.651Z,15.85
2022-10-15T08:36:36.671Z,15.88
2022-10-15T08:37:36.690Z,15.91
2022-10-15T08:38:36.711Z,15.83
2022-10-15T08:39:36.730Z,15.92
2022-10-15T08:40:36.749Z,15.87
2022-10-15T08:41:36.767Z,15.84
2022-10-15T08:42:36.788Z,15.85
2022-10-15T08:43:36.810Z,15.76
2022-10-15T08:44:36.829Z,15.84
2022-10-15T08:45:36.847Z,15.75
2022-10-15T08:46:36.870Z,15.83
2022-10-15T08:47:36.887Z,15.76
2022-10-15T08:48:36.907Z,15.84
2022-10-15T08:49:36.925Z,15.72
2022-10-15T08:50:36.945Z,15.75
2022-10-15T08:51:36.965Z,15.87
2022-10-15T08:52:36.984Z,15.90
2022-10-15T08:53:37.004Z,15.90
2022-10-15T08:54:37.027Z,15.91
2022-10-15T08:55:37.044Z,15.94
2022-10-15T08:56:37.066Z,16.02
2022-10-15T08:57:37.082Z,16.00
2022-10-15T08:58:39.722Z,16.17
2022-10-15T08:59:37.134Z,16.12
2022-10-15T09:00:37.142Z,16.12
2022-10-15T09:01:37.162Z,16.29
2022-10-15T09:02:37.238Z,16.36
2022-10-15T09:03:37.205Z,16.44
2022-10-15T09:04:37.224Z,16.40
2022-10-15T09:05:37.237Z,16.50
2022-10-15T09:06:37.260Z,16.57
2022-10-15T09:07:37.280Z,16.61
2022-10-15T09:08:37.302Z,16.69
2022-10-15T09:09:37.321Z,16.66
2022-10-15T09:10:37.343Z,16.87
2022-10-15T09:11:37.363Z,16.92
2022-10-15T09:12:37.384Z,16.99
2022-10-15T09:14:37.425Z,17.17
2022-10-15T09:15:37.444Z,17.19
2022-10-15T09:16:37.482Z,17.27
2022-10-15T09:17:37.491Z,17.35
2022-10-15T09:18:37.509Z,17.31
2022-10-15T09:19:37.537Z,17.59
2022-10-15T09:20:37.555Z,17.42
2022-10-15T09:21:37.570Z,17.56
2022-10-15T09:22:37.645Z,17.56
2022-10-15T09:23:37.615Z,17.59
2022-10-15T09:24:37.636Z,17.57
2022-10-15T09:25:37.655Z,17.68
2022-10-15T09:26:37.677Z,17.71
2022-10-15T09:27:37.709Z,17.65
2022-10-15T09:28:37.770Z,17.72
2022-10-15T09:29:37.744Z,17.78
2022-10-15T09:30:37.763Z,17.87
2022-10-15T09:31:37.785Z,17.87
2022-10-15T09:32:37.808Z,17.98
2022-10-15T09:33:37.825Z,17.94
2022-10-15T09:34:37.849Z,18.03
2022-10-15T09:35:37.868Z,18.21
2022-10-15T09:36:37.894Z,18.28
2022-10-15T09:37:37.913Z,18.28
2022-10-15T09:38:37.935Z,18.36
2022-10-15T09:39:37.957Z,18.34
2022-10-15T09:40:37.979Z,18.27
2022-10-15T09:41:38.001Z,18.41
2022-10-15T09:42:38.025Z,18.46
2022-10-15T09:43:38.042Z,18.39
2022-10-15T09:44:38.067Z,18.53
2022-10-15T09:45:38.089Z,18.67
2022-10-15T09:46:38.110Z,18.70
2022-10-15T09:47:38.133Z,18.68
2022-10-15T09:48:38.156Z,18.71
2022-10-15T09:49:38.173Z,18.63
2022-10-15T09:50:38.197Z,18.49
2022-10-15T09:51:38.222Z,18.55
2022-10-15T09:52:38.242Z,18.63
2022-10-15T09:53:38.265Z,18.67
2022-10-15T09:54:38.287Z,18.61
2022-10-15T09:55:38.311Z,18.60
2022-10-15T09:56:38.331Z,18.61
2022-10-15T09:57:38.353Z,18.63
2022-10-15T09:58:38.376Z,18.78
2022-10-15T09:59:38.399Z,18.79
2022-10-15T10:00:38.420Z,18.83
2022-10-15T10:01:38.501Z,18.82
2022-10-15T10:02:38.520Z,18.79
2022-10-15T10:03:38.486Z,18.85
2022-10-15T10:04:38.524Z,18.82
2022-10-15T10:05:38.533Z,18.86
2022-10-15T10:06:38.553Z,18.86
2022-10-15T10:07:38.575Z,18.86
2022-10-15T10:08:38.651Z,18.76
2022-10-15T10:09:38.622Z,18.85
2022-10-15T10:10:40.713Z,18.82
2022-10-15T10:11:38.673Z,18.83
2022-10-15T10:12:38.686Z,18.76
2022-10-15T10:13:38.708Z,18.73
2022-10-15T10:14:38.729Z,18.82
2022-10-15T10:15:38.751Z,18.74
2022-10-15T10:16:38.774Z,18.79
2022-10-15T10:17:38.861Z,18.85
2022-10-15T10:18:38.817Z,18.86
2022-10-15T10:19:38.841Z,18.92
2022-10-15T10:20:38.864Z,18.97
2022-10-15T10:21:38.884Z,18.94
2022-10-15T10:22:38.904Z,19.05
2022-10-15T10:23:38.928Z,19.11
2022-10-15T10:24:38.951Z,19.09
2022-10-15T10:25:38.978Z,19.15
2022-10-15T10:26:38.996Z,19.22
2022-10-15T10:27:39.018Z,19.19
2022-10-15T10:28:41.988Z,19.27
2022-10-15T10:29:39.113Z,19.26
2022-10-15T10:30:39.085Z,19.27
2022-10-15T10:31:39.117Z,19.19
2022-10-15T10:32:39.136Z,19.27
2022-10-15T10:33:39.154Z,19.27
2022-10-15T10:34:39.176Z,19.34
2022-10-15T10:35:39.197Z,19.44
2022-10-15T10:36:42.015Z,19.37
2022-10-15T10:37:39.241Z,19.35
2022-10-15T10:38:39.265Z,19.41
2022-10-15T10:39:39.290Z,19.53
2022-10-15T10:40:39.309Z,19.49
2022-10-15T10:41:39.329Z,19.60
2022-10-15T10:42:39.356Z,19.57
2022-10-15T10:43:39.565Z,19.64
2022-10-15T10:44:39.398Z,19.57
2022-10-15T10:45:39.421Z,19.64
2022-10-15T10:46:39.444Z,19.72
2022-10-15T10:47:39.467Z,19.72
2022-10-15T10:48:39.490Z,19.67
2022-10-15T10:49:39.511Z,19.77
2022-10-15T10:50:39.535Z,19.77
2022-10-15T10:51:39.560Z,19.78
2022-10-15T10:52:39.580Z,19.81
2022-10-15T10:53:39.603Z,19.85
2022-10-15T10:54:39.646Z,19.87
2022-10-15T10:55:39.648Z,19.89
2022-10-15T10:56:39.672Z,19.92
2022-10-15T10:57:39.694Z,19.96
2022-10-15T10:58:39.723Z,19.93
2022-10-15T10:59:39.743Z,20.03
2022-10-15T11:00:39.839Z,20.00
2022-10-15T11:01:39.787Z,19.94
2022-10-15T11:02:39.806Z,19.94
2022-10-15T11:03:39.831Z,19.94
2022-10-15T11:04:39.854Z,19.92
2022-10-15T11:05:39.875Z,19.87
2022-10-15T11:06:39.900Z,19.93
2022-10-15T11:07:39.922Z,19.87
2022-10-15T11:08:39.943Z,19.85
2022-10-15T11:09:39.967Z,19.97
2022-10-15T11:10:39.990Z,20.00
2022-10-15T11:11:40.016Z,20.04
2022-10-15T11:12:40.035Z,20.03
2022-10-15T11:13:40.062Z,20.03
2022-10-15T11:14:40.077Z,20.08
2022-10-15T11:15:40.102Z,20.00
2022-10-15T11:16:40.129Z,19.99
2022-10-15T11:17:40.151Z,20.11
2022-10-15T11:18:40.170Z,20.10
2022-10-15T11:20:13.110Z,20.11
2022-10-15T11:20:53.110Z,20.10
2022-10-15T11:21:40.239Z,20.15
2022-10-15T11:22:40.264Z,20.15
2022-10-15T11:23:40.286Z,20.12
2022-10-15T11:24:48.567Z,20.24
2022-10-15T11:25:40.331Z,20.26
2022-10-15T11:26:52.070Z,20.14
2022-10-15T11:27:40.378Z,20.17
2022-10-15T11:28:40.484Z,20.22
2022-10-15T11:29:40.425Z,20.19
2022-10-15T11:30:40.450Z,20.21
2022-10-15T11:31:49.252Z,20.33
2022-10-15T11:33:02.001Z,20.46
2022-10-15T11:33:40.516Z,20.42
2022-10-15T11:34:40.544Z,20.39
2022-10-15T11:35:54.363Z,20.44
2022-10-15T11:36:40.587Z,20.39
2022-10-15T11:37:40.608Z,20.36
2022-10-15T11:38:40.630Z,20.39
2022-10-15T11:39:40.656Z,20.40
2022-10-15T11:40:40.677Z,20.46
2022-10-15T11:41:40.699Z,20.52
2022-10-15T11:42:40.722Z,20.59
2022-10-15T11:43:40.746Z,20.59
2022-10-15T11:44:40.771Z,20.58
2022-10-15T11:45:40.791Z,20.55
2022-10-15T11:46:44.107Z,20.68
2022-10-15T11:47:40.860Z,20.58
2022-10-15T11:48:40.861Z,20.55
2022-10-15T11:49:40.969Z,20.49
2022-10-15T11:50:40.929Z,20.50
2022-10-15T11:51:40.935Z,20.53
2022-10-15T11:52:40.954Z,20.55
2022-10-15T11:53:40.980Z,20.55
2022-10-15T11:54:41.018Z,20.60
2022-10-15T11:55:41.021Z,20.56
2022-10-15T11:56:41.050Z,20.53
2022-10-15T11:57:41.091Z,20.56
2022-10-15T11:58:41.091Z,20.53
2022-10-15T11:59:41.118Z,20.52
2022-10-15T12:00:41.143Z,20.56
2022-10-15T12:01:41.160Z,20.55
2022-10-15T12:02:41.181Z,20.44
2022-10-15T12:03:41.206Z,20.53
2022-10-15T12:04:41.229Z,20.42
2022-10-15T12:05:41.251Z,20.48
2022-10-15T12:06:41.273Z,20.55
2022-10-15T12:07:41.293Z,20.55
2022-10-15T12:08:41.319Z,20.55
2022-10-15T12:09:41.340Z,20.46
2022-10-15T12:10:41.365Z,20.49
2022-10-15T12:11:41.389Z,20.55
2022-10-15T12:12:41.410Z,20.46
2022-10-15T12:13:41.433Z,20.46
2022-10-15T12:14:41.453Z,20.52
2022-10-15T12:15:41.479Z,20.48
2022-10-15T12:16:41.504Z,20.50
2022-10-15T12:17:41.524Z,20.44
2022-10-15T12:18:41.548Z,20.37
2022-10-15T12:19:41.578Z,20.33
2022-10-15T12:20:41.595Z,20.22
2022-10-15T12:21:41.616Z,20.19
2022-10-15T12:22:41.639Z,20.33
2022-10-15T12:23:41.660Z,20.36
2022-10-15T12:24:41.684Z,20.30
2022-10-15T12:25:41.706Z,20.27
2022-10-15T12:26:41.728Z,20.29
2022-10-15T12:27:41.752Z,20.22
2022-10-15T12:28:41.796Z,20.15
2022-10-15T12:29:41.796Z,20.12
2022-10-15T12:30:41.820Z,20.11
2022-10-15T12:31:41.844Z,20.14
2022-10-15T12:32:41.864Z,20.12
2022-10-15T12:33:41.889Z,20.12
2022-10-15T12:34:41.908Z,20.10
2022-10-15T12:35:41.933Z,20.27
2022-10-15T12:36:41.954Z,20.22
2022-10-15T12:37:41.977Z,20.37
2022-10-15T12:38:42.003Z,20.33
2022-10-15T12:39:57.207Z,20.37
2022-10-15T12:40:42.045Z,20.37
2022-10-15T12:41:42.067Z,20.42
2022-10-15T12:42:42.090Z,20.44
2022-10-15T12:43:42.113Z,20.53
2022-10-15T12:44:42.136Z,20.50
2022-10-15T12:45:42.159Z,20.52
2022-10-15T12:46:42.181Z,20.67
2022-10-15T12:47:42.204Z,20.64
2022-10-15T12:48:42.227Z,20.63
2022-10-15T12:49:42.251Z,20.66
2022-10-15T12:50:42.273Z,20.63
2022-10-15T12:51:42.296Z,20.59
2022-10-15T12:52:42.323Z,20.52
2022-10-15T12:53:42.343Z,20.56
2022-10-15T12:54:42.365Z,20.55
2022-10-15T12:55:42.386Z,20.40
2022-10-15T12:56:42.408Z,20.40
2022-10-15T12:57:42.434Z,20.34